GLO1782 SBEG-SBSN
Flight info
| Callsign | GLO1782 |
|---|---|
| Flight time | 0h 53m |
| Altitude | 35000 |
| Route | XOLOK UZ81 TOBUX DCT STM DCT |
| Aircraft | B738/M-SDFGIKLORWXY/LB1 |
Departure
| Time | 2026-04-20 01:26 |
|---|---|
| Airport | Eduardo Gomes International Airport (SBEG) |
Arrival
| Time | 2026-04-20 02:20 |
|---|---|
| Airport | Santarém - Maestro Wilson Fonseca International Airport (SBSN) |
| Time | Latitude | Longitude | Altitude | Speed | Heading |
|---|---|---|---|---|---|
| 2026-04-20 00:59 | -3.03268 | -60.04540 | 264 ft | 0 kts | 353° |
| 2026-04-20 01:16 | -3.03271 | -60.04539 | 267 ft | 3 kts | 352° |
| 2026-04-20 01:16 | -3.03297 | -60.04535 | 267 ft | 4 kts | 345° |
| 2026-04-20 01:16 | -3.03322 | -60.04526 | 267 ft | 4 kts | 332° |
| 2026-04-20 01:16 | -3.03343 | -60.04511 | 267 ft | 4 kts | 296° |
| 2026-04-20 01:17 | -3.03346 | -60.04496 | 267 ft | 1 kts | 261° |
| 2026-04-20 01:17 | -3.03346 | -60.04494 | 267 ft | 0 kts | 261° |
| 2026-04-20 01:20 | -3.03348 | -60.04505 | 267 ft | 3 kts | 261° |
| 2026-04-20 01:20 | -3.03354 | -60.04542 | 267 ft | 7 kts | 261° |
| 2026-04-20 01:20 | -3.03357 | -60.04588 | 267 ft | 7 kts | 272° |
| 2026-04-20 01:20 | -3.03355 | -60.04645 | 267 ft | 10 kts | 272° |
| 2026-04-20 01:21 | -3.03358 | -60.04729 | 267 ft | 14 kts | 258° |
| 2026-04-20 01:21 | -3.03401 | -60.04815 | 267 ft | 14 kts | 233° |
| 2026-04-20 01:21 | -3.03469 | -60.04876 | 267 ft | 13 kts | 212° |
| 2026-04-20 01:21 | -3.03536 | -60.04934 | 267 ft | 13 kts | 229° |
| 2026-04-20 01:22 | -3.03580 | -60.05010 | 267 ft | 13 kts | 247° |
| 2026-04-20 01:22 | -3.03609 | -60.05109 | 267 ft | 17 kts | 255° |
| 2026-04-20 01:22 | -3.03639 | -60.05222 | 267 ft | 17 kts | 255° |
| 2026-04-20 01:22 | -3.03667 | -60.05332 | 268 ft | 16 kts | 258° |
| 2026-04-20 01:23 | -3.03686 | -60.05439 | 267 ft | 15 kts | 265° |
| 2026-04-20 01:23 | -3.03691 | -60.05542 | 267 ft | 15 kts | 269° |
| 2026-04-20 01:23 | -3.03691 | -60.05642 | 267 ft | 14 kts | 270° |
| 2026-04-20 01:23 | -3.03691 | -60.05738 | 267 ft | 13 kts | 270° |
| 2026-04-20 01:24 | -3.03691 | -60.05829 | 267 ft | 13 kts | 270° |
| 2026-04-20 01:24 | -3.03691 | -60.05918 | 267 ft | 13 kts | 270° |
| 2026-04-20 01:24 | -3.03691 | -60.06005 | 267 ft | 12 kts | 270° |
| 2026-04-20 01:24 | -3.03692 | -60.06089 | 267 ft | 12 kts | 266° |
| 2026-04-20 01:25 | -3.03729 | -60.06159 | 267 ft | 12 kts | 215° |
| 2026-04-20 01:25 | -3.03806 | -60.06173 | 268 ft | 11 kts | 174° |
| 2026-04-20 01:25 | -3.03856 | -60.06122 | 269 ft | 11 kts | 94° |
| 2026-04-20 01:25 | -3.03856 | -60.06005 | 268 ft | 36 kts | 90° |
| 2026-04-20 01:26 | -3.03856 | -60.05505 | 267 ft | 106 kts | 90° |
| 2026-04-20 01:26 | -3.03857 | -60.04583 | 271 ft | 161 kts | 90° |
| 2026-04-20 01:26 | -3.03858 | -60.03391 | 740 ft | 172 kts | 90° |
| 2026-04-20 01:26 | -3.03875 | -60.02227 | 1548 ft | 167 kts | 91° |
| 2026-04-20 01:27 | -3.03900 | -60.00971 | 1829 ft | 194 kts | 91° |
| 2026-04-20 01:27 | -3.03936 | -59.99533 | 2043 ft | 217 kts | 92° |
| 2026-04-20 01:27 | -3.03938 | -59.97950 | 2264 ft | 236 kts | 86° |
| 2026-04-20 01:27 | -3.03752 | -59.96268 | 2507 ft | 256 kts | 82° |
| 2026-04-20 01:28 | -3.03500 | -59.94479 | 3174 ft | 261 kts | 82° |
| 2026-04-20 01:28 | -3.03237 | -59.92659 | 3866 ft | 265 kts | 82° |
| 2026-04-20 01:28 | -3.02975 | -59.90822 | 4591 ft | 268 kts | 82° |
| 2026-04-20 01:28 | -3.02713 | -59.88960 | 5290 ft | 271 kts | 82° |
| 2026-04-20 01:29 | -3.02453 | -59.87082 | 6020 ft | 274 kts | 82° |
| 2026-04-20 01:29 | -3.02194 | -59.85185 | 6702 ft | 277 kts | 82° |
| 2026-04-20 01:29 | -3.01934 | -59.83264 | 7376 ft | 280 kts | 82° |
| 2026-04-20 01:29 | -3.01672 | -59.81320 | 8090 ft | 283 kts | 82° |
| 2026-04-20 01:30 | -3.01409 | -59.79356 | 8804 ft | 287 kts | 82° |
| 2026-04-20 01:30 | -3.01147 | -59.77390 | 9522 ft | 290 kts | 82° |
| 2026-04-20 01:30 | -3.00879 | -59.75374 | 10222 ft | 295 kts | 82° |
| 2026-04-20 01:30 | -3.00600 | -59.73269 | 10469 ft | 317 kts | 82° |
| 2026-04-20 01:31 | -3.00301 | -59.71013 | 10689 ft | 336 kts | 82° |
| 2026-04-20 01:31 | -2.99991 | -59.68671 | 11195 ft | 344 kts | 82° |
| 2026-04-20 01:31 | -2.99674 | -59.66280 | 11853 ft | 348 kts | 82° |
| 2026-04-20 01:31 | -2.99355 | -59.63866 | 12526 ft | 351 kts | 82° |
| 2026-04-20 01:32 | -2.99032 | -59.61423 | 13198 ft | 355 kts | 82° |
| 2026-04-20 01:32 | -2.98706 | -59.58959 | 13884 ft | 359 kts | 82° |
| 2026-04-20 01:32 | -2.98377 | -59.56475 | 14546 ft | 361 kts | 82° |
| 2026-04-20 01:32 | -2.98046 | -59.53965 | 15160 ft | 365 kts | 83° |
| 2026-04-20 01:33 | -2.97710 | -59.51426 | 15770 ft | 370 kts | 83° |
| 2026-04-20 01:33 | -2.97371 | -59.48862 | 16388 ft | 374 kts | 83° |
| 2026-04-20 01:33 | -2.97032 | -59.46300 | 16995 ft | 378 kts | 83° |
| 2026-04-20 01:33 | -2.96686 | -59.43683 | 17602 ft | 382 kts | 83° |
| 2026-04-20 01:34 | -2.96335 | -59.41034 | 18184 ft | 386 kts | 83° |
| 2026-04-20 01:34 | -2.95980 | -59.38355 | 18711 ft | 389 kts | 83° |
| 2026-04-20 01:34 | -2.95623 | -59.35657 | 19294 ft | 390 kts | 83° |
| 2026-04-20 01:34 | -2.95266 | -59.32963 | 19866 ft | 392 kts | 83° |
| 2026-04-20 01:35 | -2.94907 | -59.30252 | 20417 ft | 394 kts | 83° |
| 2026-04-20 01:35 | -2.94545 | -59.27524 | 20935 ft | 397 kts | 83° |
| 2026-04-20 01:35 | -2.94182 | -59.24779 | 21443 ft | 400 kts | 83° |
| 2026-04-20 01:35 | -2.93814 | -59.22004 | 21944 ft | 403 kts | 83° |
| 2026-04-20 01:36 | -2.93444 | -59.19214 | 22453 ft | 405 kts | 83° |
| 2026-04-20 01:36 | -2.93073 | -59.16416 | 22933 ft | 408 kts | 83° |
| 2026-04-20 01:36 | -2.92703 | -59.13627 | 23411 ft | 410 kts | 83° |
| 2026-04-20 01:36 | -2.92326 | -59.10781 | 23812 ft | 413 kts | 83° |
| 2026-04-20 01:37 | -2.91947 | -59.07928 | 24205 ft | 415 kts | 83° |
| 2026-04-20 01:37 | -2.91566 | -59.05058 | 24599 ft | 417 kts | 83° |
| 2026-04-20 01:37 | -2.91183 | -59.02173 | 25000 ft | 419 kts | 83° |
| 2026-04-20 01:37 | -2.90812 | -58.99375 | 25390 ft | 420 kts | 83° |
| 2026-04-20 01:38 | -2.90426 | -58.96469 | 25764 ft | 423 kts | 83° |
| 2026-04-20 01:38 | -2.90037 | -58.93545 | 26125 ft | 425 kts | 83° |
| 2026-04-20 01:38 | -2.89647 | -58.90607 | 26481 ft | 427 kts | 83° |
| 2026-04-20 01:38 | -2.89254 | -58.87651 | 26839 ft | 429 kts | 83° |
| 2026-04-20 01:39 | -2.88859 | -58.84680 | 27193 ft | 432 kts | 83° |
| 2026-04-20 01:39 | -2.88596 | -58.82701 | 27433 ft | 433 kts | 83° |
| 2026-04-20 01:39 | -2.88199 | -58.79708 | 27772 ft | 435 kts | 83° |
| 2026-04-20 01:39 | -2.87799 | -58.76700 | 28105 ft | 437 kts | 83° |
| 2026-04-20 01:40 | -2.87397 | -58.73678 | 28432 ft | 439 kts | 83° |
| 2026-04-20 01:40 | -2.86993 | -58.70641 | 28749 ft | 442 kts | 83° |
| 2026-04-20 01:40 | -2.86587 | -58.67589 | 29066 ft | 444 kts | 83° |
| 2026-04-20 01:40 | -2.86178 | -58.64517 | 29372 ft | 446 kts | 83° |
| 2026-04-20 01:41 | -2.85769 | -58.61447 | 29836 ft | 443 kts | 83° |
| 2026-04-20 01:41 | -2.85364 | -58.58404 | 30336 ft | 440 kts | 83° |
| 2026-04-20 01:41 | -2.84960 | -58.55374 | 30674 ft | 440 kts | 83° |
| 2026-04-20 01:41 | -2.84554 | -58.52325 | 30915 ft | 443 kts | 83° |
| 2026-04-20 01:42 | -2.84146 | -58.49260 | 31150 ft | 446 kts | 83° |
| 2026-04-20 01:42 | -2.83736 | -58.46181 | 31421 ft | 447 kts | 83° |
| 2026-04-20 01:42 | -2.83325 | -58.43097 | 31744 ft | 447 kts | 83° |
| 2026-04-20 01:42 | -2.82914 | -58.40013 | 32032 ft | 448 kts | 83° |
| 2026-04-20 01:43 | -2.82502 | -58.36926 | 32290 ft | 449 kts | 83° |
| 2026-04-20 01:43 | -2.82089 | -58.33823 | 32557 ft | 450 kts | 83° |
| 2026-04-20 01:43 | -2.81675 | -58.30722 | 32912 ft | 449 kts | 83° |
| 2026-04-20 01:43 | -2.81267 | -58.27671 | 33350 ft | 445 kts | 83° |
| 2026-04-20 01:44 | -2.80858 | -58.24608 | 33808 ft | 442 kts | 83° |
| 2026-04-20 01:44 | -2.80452 | -58.21567 | 34175 ft | 440 kts | 83° |
| 2026-04-20 01:44 | -2.80047 | -58.18536 | 34501 ft | 439 kts | 83° |
| 2026-04-20 01:44 | -2.79646 | -58.15529 | 34905 ft | 435 kts | 83° |
| 2026-04-20 01:45 | -2.79246 | -58.12535 | 35233 ft | 433 kts | 83° |
| 2026-04-20 01:45 | -2.78846 | -58.09543 | 35487 ft | 434 kts | 83° |
| 2026-04-20 01:45 | -2.78447 | -58.06550 | 35736 ft | 434 kts | 83° |
| 2026-04-20 01:45 | -2.78047 | -58.03557 | 36035 ft | 433 kts | 83° |
| 2026-04-20 01:46 | -2.77649 | -58.00577 | 36355 ft | 431 kts | 83° |
| 2026-04-20 01:46 | -2.77267 | -57.97721 | 36634 ft | 430 kts | 83° |
| 2026-04-20 01:46 | -2.76870 | -57.94750 | 36888 ft | 430 kts | 83° |
| 2026-04-20 01:46 | -2.76478 | -57.91815 | 36920 ft | 434 kts | 83° |
| 2026-04-20 01:47 | -2.75675 | -57.85815 | 36931 ft | 434 kts | 83° |
| 2026-04-20 01:47 | -2.74877 | -57.79851 | 36935 ft | 430 kts | 83° |
| 2026-04-20 01:48 | -2.74084 | -57.73928 | 36939 ft | 428 kts | 83° |
| 2026-04-20 01:48 | -2.73295 | -57.68037 | 36941 ft | 427 kts | 83° |
| 2026-04-20 01:49 | -2.72507 | -57.62153 | 36938 ft | 427 kts | 83° |
| 2026-04-20 01:49 | -2.71718 | -57.56266 | 36944 ft | 428 kts | 82° |
| 2026-04-20 01:50 | -2.70925 | -57.50353 | 36946 ft | 430 kts | 82° |
| 2026-04-20 01:50 | -2.70134 | -57.44453 | 36949 ft | 432 kts | 82° |
| 2026-04-20 01:51 | -2.69334 | -57.38490 | 36945 ft | 433 kts | 82° |
| 2026-04-20 01:51 | -2.68529 | -57.32494 | 36949 ft | 435 kts | 82° |
| 2026-04-20 01:52 | -2.67722 | -57.26481 | 36950 ft | 437 kts | 82° |
| 2026-04-20 01:52 | -2.66911 | -57.20447 | 36948 ft | 438 kts | 82° |
| 2026-04-20 01:53 | -2.66100 | -57.14406 | 36950 ft | 438 kts | 82° |
| 2026-04-20 01:53 | -2.65293 | -57.08402 | 36947 ft | 438 kts | 83° |
| 2026-04-20 01:54 | -2.64482 | -57.02374 | 36949 ft | 437 kts | 83° |
| 2026-04-20 01:54 | -2.63689 | -56.96476 | 36950 ft | 436 kts | 83° |
| 2026-04-20 01:55 | -2.62880 | -56.90471 | 36952 ft | 435 kts | 83° |
| 2026-04-20 01:55 | -2.62072 | -56.84466 | 36954 ft | 434 kts | 83° |
| 2026-04-20 01:56 | -2.61265 | -56.78477 | 36953 ft | 434 kts | 83° |
| 2026-04-20 01:56 | -2.60467 | -56.72547 | 36956 ft | 433 kts | 83° |
| 2026-04-20 01:57 | -2.59662 | -56.66575 | 36958 ft | 432 kts | 83° |
| 2026-04-20 01:57 | -2.58858 | -56.60616 | 36960 ft | 432 kts | 83° |
| 2026-04-20 01:58 | -2.58129 | -56.54669 | 36902 ft | 427 kts | 85° |
| 2026-04-20 01:58 | -2.57887 | -56.51731 | 36438 ft | 423 kts | 86° |
| 2026-04-20 01:58 | -2.57681 | -56.48782 | 35697 ft | 427 kts | 86° |
| 2026-04-20 01:59 | -2.57481 | -56.45792 | 34873 ft | 435 kts | 86° |
| 2026-04-20 01:59 | -2.57272 | -56.42754 | 34083 ft | 441 kts | 85° |
| 2026-04-20 01:59 | -2.57054 | -56.39711 | 33242 ft | 446 kts | 85° |
| 2026-04-20 01:59 | -2.56824 | -56.36602 | 32398 ft | 450 kts | 85° |
| 2026-04-20 02:00 | -2.56586 | -56.33463 | 31669 ft | 452 kts | 85° |
| 2026-04-20 02:00 | -2.56345 | -56.30340 | 31176 ft | 448 kts | 86° |
| 2026-04-20 02:00 | -2.56107 | -56.27264 | 30669 ft | 438 kts | 86° |
| 2026-04-20 02:00 | -2.55872 | -56.24243 | 29866 ft | 434 kts | 86° |
| 2026-04-20 02:01 | -2.55639 | -56.21237 | 28872 ft | 432 kts | 86° |
| 2026-04-20 02:01 | -2.55407 | -56.18241 | 27988 ft | 428 kts | 86° |
| 2026-04-20 02:01 | -2.55178 | -56.15289 | 27189 ft | 423 kts | 86° |
| 2026-04-20 02:01 | -2.54954 | -56.12409 | 26436 ft | 418 kts | 86° |
| 2026-04-20 02:02 | -2.54731 | -56.09530 | 25677 ft | 413 kts | 86° |
| 2026-04-20 02:02 | -2.54509 | -56.06669 | 24921 ft | 409 kts | 86° |
| 2026-04-20 02:02 | -2.54291 | -56.03852 | 24200 ft | 405 kts | 86° |
| 2026-04-20 02:02 | -2.54074 | -56.01052 | 23484 ft | 402 kts | 85° |
| 2026-04-20 02:03 | -2.53867 | -55.98383 | 22693 ft | 398 kts | 85° |
| 2026-04-20 02:03 | -2.53654 | -55.95642 | 21932 ft | 393 kts | 85° |
| 2026-04-20 02:03 | -2.53445 | -55.92939 | 21202 ft | 388 kts | 85° |
| 2026-04-20 02:03 | -2.53237 | -55.90262 | 20468 ft | 384 kts | 85° |
| 2026-04-20 02:04 | -2.53031 | -55.87611 | 19759 ft | 380 kts | 85° |
| 2026-04-20 02:04 | -2.52827 | -55.84987 | 19062 ft | 377 kts | 85° |
| 2026-04-20 02:04 | -2.52626 | -55.82388 | 18378 ft | 373 kts | 84° |
| 2026-04-20 02:04 | -2.52424 | -55.79813 | 17633 ft | 370 kts | 84° |
| 2026-04-20 02:05 | -2.52228 | -55.77297 | 16924 ft | 366 kts | 84° |
| 2026-04-20 02:05 | -2.52032 | -55.74772 | 16217 ft | 362 kts | 84° |
| 2026-04-20 02:05 | -2.51839 | -55.72282 | 15547 ft | 357 kts | 84° |
| 2026-04-20 02:05 | -2.51648 | -55.69818 | 14892 ft | 354 kts | 84° |
| 2026-04-20 02:06 | -2.51458 | -55.67379 | 14246 ft | 350 kts | 84° |
| 2026-04-20 02:06 | -2.51270 | -55.64964 | 13594 ft | 346 kts | 84° |
| 2026-04-20 02:06 | -2.51084 | -55.62571 | 12904 ft | 342 kts | 84° |
| 2026-04-20 02:06 | -2.50900 | -55.60204 | 12250 ft | 338 kts | 84° |
| 2026-04-20 02:07 | -2.50718 | -55.57875 | 11608 ft | 334 kts | 84° |
| 2026-04-20 02:07 | -2.50539 | -55.55574 | 10971 ft | 330 kts | 84° |
| 2026-04-20 02:07 | -2.50363 | -55.53326 | 10407 ft | 325 kts | 85° |
| 2026-04-20 02:07 | -2.50194 | -55.51145 | 10264 ft | 306 kts | 84° |
| 2026-04-20 02:08 | -2.50033 | -55.49079 | 10111 ft | 290 kts | 84° |
| 2026-04-20 02:08 | -2.49880 | -55.47107 | 9995 ft | 280 kts | 84° |
| 2026-04-20 02:08 | -2.49729 | -55.45175 | 9722 ft | 278 kts | 84° |
| 2026-04-20 02:08 | -2.49578 | -55.43249 | 9426 ft | 277 kts | 84° |
| 2026-04-20 02:09 | -2.49428 | -55.41331 | 9131 ft | 276 kts | 84° |
| 2026-04-20 02:09 | -2.49278 | -55.39412 | 8832 ft | 275 kts | 85° |
| 2026-04-20 02:09 | -2.49129 | -55.37507 | 8537 ft | 275 kts | 85° |
| 2026-04-20 02:09 | -2.49031 | -55.36247 | 8340 ft | 274 kts | 85° |
| 2026-04-20 02:10 | -2.48832 | -55.33707 | 7944 ft | 273 kts | 85° |
| 2026-04-20 02:10 | -2.48686 | -55.31833 | 7654 ft | 273 kts | 85° |
| 2026-04-20 02:10 | -2.48538 | -55.29940 | 7359 ft | 272 kts | 85° |
| 2026-04-20 02:10 | -2.48390 | -55.28057 | 7066 ft | 272 kts | 85° |
| 2026-04-20 02:11 | -2.48243 | -55.26164 | 6775 ft | 272 kts | 85° |
| 2026-04-20 02:11 | -2.48095 | -55.24278 | 6479 ft | 272 kts | 85° |
| 2026-04-20 02:11 | -2.47948 | -55.22396 | 6160 ft | 272 kts | 85° |
| 2026-04-20 02:11 | -2.47800 | -55.20508 | 5854 ft | 272 kts | 85° |
| 2026-04-20 02:12 | -2.47653 | -55.18627 | 5556 ft | 271 kts | 85° |
| 2026-04-20 02:12 | -2.47507 | -55.16750 | 5260 ft | 270 kts | 85° |
| 2026-04-20 02:12 | -2.47360 | -55.14878 | 4967 ft | 269 kts | 85° |
| 2026-04-20 02:12 | -2.47215 | -55.13015 | 4677 ft | 269 kts | 85° |
| 2026-04-20 02:13 | -2.47069 | -55.11154 | 4373 ft | 268 kts | 85° |
| 2026-04-20 02:13 | -2.46924 | -55.09305 | 4162 ft | 263 kts | 85° |
| 2026-04-20 02:13 | -2.46784 | -55.07509 | 4044 ft | 256 kts | 85° |
| 2026-04-20 02:13 | -2.46607 | -55.05770 | 3972 ft | 246 kts | 81° |
| 2026-04-20 02:14 | -2.46317 | -55.04111 | 3953 ft | 237 kts | 79° |
| 2026-04-20 02:14 | -2.46024 | -55.02517 | 3873 ft | 228 kts | 79° |
| 2026-04-20 02:14 | -2.45766 | -55.01000 | 3782 ft | 215 kts | 80° |
| 2026-04-20 02:14 | -2.45541 | -54.99631 | 3670 ft | 204 kts | 80° |
| 2026-04-20 02:15 | -2.45317 | -54.98251 | 3484 ft | 198 kts | 80° |
| 2026-04-20 02:15 | -2.45103 | -54.96927 | 3404 ft | 185 kts | 80° |
| 2026-04-20 02:15 | -2.44899 | -54.95668 | 3191 ft | 181 kts | 81° |
| 2026-04-20 02:15 | -2.44698 | -54.94437 | 2954 ft | 178 kts | 80° |
| 2026-04-20 02:16 | -2.44504 | -54.93236 | 2735 ft | 173 kts | 80° |
| 2026-04-20 02:16 | -2.44317 | -54.92086 | 2495 ft | 163 kts | 80° |
| 2026-04-20 02:16 | -2.44143 | -54.91011 | 2321 ft | 148 kts | 80° |
| 2026-04-20 02:16 | -2.43982 | -54.90022 | 2104 ft | 142 kts | 80° |
| 2026-04-20 02:17 | -2.43826 | -54.89064 | 1922 ft | 139 kts | 80° |
| 2026-04-20 02:17 | -2.43670 | -54.88101 | 1740 ft | 140 kts | 80° |
| 2026-04-20 02:17 | -2.43513 | -54.87134 | 1550 ft | 141 kts | 80° |
| 2026-04-20 02:17 | -2.43358 | -54.86176 | 1361 ft | 140 kts | 81° |
| 2026-04-20 02:18 | -2.43202 | -54.85215 | 1163 ft | 140 kts | 81° |
| 2026-04-20 02:18 | -2.43046 | -54.84254 | 986 ft | 141 kts | 81° |
| 2026-04-20 02:18 | -2.42889 | -54.83288 | 808 ft | 142 kts | 81° |
| 2026-04-20 02:18 | -2.42731 | -54.82316 | 630 ft | 141 kts | 81° |
| 2026-04-20 02:19 | -2.42574 | -54.81343 | 447 ft | 141 kts | 81° |
| 2026-04-20 02:19 | -2.42420 | -54.80380 | 260 ft | 139 kts | 81° |
| 2026-04-20 02:19 | -2.42271 | -54.79473 | 214 ft | 114 kts | 81° |
| 2026-04-20 02:19 | -2.42202 | -54.79066 | 214 ft | 59 kts | 80° |
| 2026-04-20 02:20 | -2.42166 | -54.78796 | 208 ft | 16 kts | 100° |
| 2026-04-20 02:20 | -2.42228 | -54.78708 | 205 ft | 16 kts | 139° |
| 2026-04-20 02:20 | -2.42309 | -54.78637 | 205 ft | 13 kts | 139° |
| 2026-04-20 02:20 | -2.42350 | -54.78584 | 209 ft | 6 kts | 93° |
| 2026-04-20 02:21 | -2.42367 | -54.78547 | 208 ft | 3 kts | 147° |
| 2026-04-20 02:21 | -2.42379 | -54.78539 | 205 ft | 1 kts | 144° |
| 2026-04-20 02:21 | -2.42381 | -54.78538 | 205 ft | 0 kts | 144° |